Time;durP1;ratioP1;P1;durP2;ratioP2;P2;SDS_P1;SDS_P2;PMS_P1;PMS_P2;Temp;Humidity;BMP_temperature;BMP_pressure;BME280_temperature;BME280_humidity;BME280_pressure;Samples;Min_cycle;Max_cycle;Signal;HPM_P1;HPM_P2
2022/02/22 00:00:52;;;;;;;30.90;4.30;;;13.40;51.80;;;;;;5003510;28;20429;-87
2022/02/22 00:03:21;;;;;;;19.13;4.40;;;13.40;52.50;;;;;;5002291;28;20437;-87
2022/02/22 00:05:49;;;;;;;28.00;5.33;;;13.40;51.70;;;;;;5002225;28;20476;-87
2022/02/22 00:08:17;;;;;;;20.60;4.40;;;13.50;51.50;;;;;;5006830;28;20979;-86
2022/02/22 00:10:45;;;;;;;20.60;3.90;;;13.50;52.00;;;;;;5007546;28;20527;-88
2022/02/22 00:13:13;;;;;;;26.63;4.80;;;13.60;51.60;;;;;;5006070;28;20448;-86
2022/02/22 00:15:46;;;;;;;13.90;4.20;;;13.60;51.20;;;;;;5013235;28;20504;-86
2022/02/22 00:18:14;;;;;;;17.60;4.83;;;13.60;51.60;;;;;;5007466;28;20437;-88
2022/02/22 00:20:44;;;;;;;23.63;5.50;;;13.50;51.50;;;;;;5002112;28;20430;-88
2022/02/22 00:23:12;;;;;;;35.27;6.10;;;13.50;51.10;;;;;;5003208;28;20473;-90
2022/02/22 00:25:41;;;;;;;31.10;5.07;;;13.40;51.10;;;;;;5002919;28;20484;-87
2022/02/22 00:28:09;;;;;;;31.40;5.40;;;13.30;51.20;;;;;;5005242;28;20445;-89
2022/02/22 00:30:37;;;;;;;24.60;4.97;;;13.30;51.40;;;;;;5002954;28;20511;-90
2022/02/22 00:33:07;;;;;;;22.97;5.40;;;13.20;51.80;;;;;;5001630;28;20480;-90
2022/02/22 00:35:36;;;;;;;25.50;5.53;;;13.40;51.40;;;;;;5004433;28;20492;-88
2022/02/22 00:38:04;;;;;;;27.20;5.77;;;13.50;51.20;;;;;;5004466;28;20445;-87
2022/02/22 00:40:31;;;;;;;34.87;5.97;;;13.50;51.00;;;;;;5006229;28;20445;-88
2022/02/22 00:42:59;;;;;;;40.17;5.70;;;13.40;50.50;;;;;;5009063;28;20449;-87
2022/02/22 00:45:28;;;;;;;31.63;5.20;;;13.40;50.40;;;;;;5006082;28;20468;-89
2022/02/22 00:47:57;;;;;;;20.90;4.53;;;13.10;51.30;;;;;;5002244;28;20500;-90
2022/02/22 00:50:28;;;;;;;32.13;5.10;;;13.20;51.30;;;;;;5000881;28;20532;-88
2022/02/22 00:52:56;;;;;;;27.90;5.73;;;13.20;51.00;;;;;;5001033;28;20453;-88
2022/02/22 00:55:25;;;;;;;27.13;5.17;;;13.40;50.70;;;;;;5001585;28;20890;-89
2022/02/22 00:57:54;;;;;;;20.57;4.43;;;13.30;50.60;;;;;;5004966;28;20438;-90
2022/02/22 01:00:22;;;;;;;24.77;5.90;;;13.30;51.20;;;;;;4999470;28;20468;-89
2022/02/22 01:02:51;;;;;;;25.77;4.80;;;13.40;50.70;;;;;;5002875;28;20476;-88
2022/02/22 01:05:20;;;;;;;38.70;6.90;;;13.20;51.00;;;;;;5001731;28;20477;-88
2022/02/22 01:07:50;;;;;;;25.67;4.73;;;13.10;50.80;;;;;;5001940;28;20449;-89
2022/02/22 01:10:18;;;;;;;20.73;4.13;;;13.20;51.50;;;;;;5001746;28;20473;-87
2022/02/22 01:12:47;;;;;;;16.73;3.70;;;13.20;51.40;;;;;;5001477;28;20449;-90
2022/02/22 01:15:15;;;;;;;20.63;3.90;;;13.30;51.20;;;;;;4999344;28;20499;-89
2022/02/22 01:17:43;;;;;;;15.10;4.20;;;13.30;51.10;;;;;;5000335;28;20441;-88
2022/02/22 01:20:12;;;;;;;22.40;3.97;;;13.10;51.20;;;;;;5001686;28;20447;-89
2022/02/22 01:22:40;;;;;;;17.40;3.63;;;13.10;51.30;;;;;;4998851;28;20527;-89
2022/02/22 01:25:10;;;;;;;23.87;3.80;;;13.30;50.30;;;;;;4998737;28;20461;-90
2022/02/22 01:27:40;;;;;;;20.63;3.77;;;13.20;49.90;;;;;;4997244;28;20454;-89
2022/02/22 01:30:08;;;;;;;22.47;4.43;;;13.00;50.20;;;;;;5000703;28;20477;-88
2022/02/22 01:32:36;;;;;;;18.60;4.07;;;12.70;51.00;;;;;;4997846;28;20503;-89
2022/02/22 01:35:05;;;;;;;11.10;3.10;;;12.90;50.00;;;;;;4998835;28;20473;-89
2022/02/22 01:37:33;;;;;;;15.17;3.20;;;12.50;50.60;;;;;;4999990;28;20495;-87
2022/02/22 01:40:01;;;;;;;15.00;3.20;;;12.70;50.40;;;;;;4997192;28;20504;-88
2022/02/22 01:42:31;;;;;;;10.23;3.00;;;12.70;50.40;;;;;;4997419;28;20445;-88
2022/02/22 01:44:59;;;;;;;20.13;4.17;;;12.80;49.90;;;;;;4996293;28;20985;-88
2022/02/22 01:47:27;;;;;;;24.87;3.70;;;12.80;49.60;;;;;;4996207;28;20511;-87
2022/02/22 01:49:55;;;;;;;21.37;3.87;;;12.60;49.70;;;;;;4996867;28;20469;-87
2022/02/22 01:52:23;;;;;;;16.83;3.37;;;12.40;50.40;;;;;;4992902;28;20459;-87
2022/02/22 01:54:51;;;;;;;24.27;4.40;;;12.30;51.00;;;;;;4997796;28;20472;-88
2022/02/22 01:57:19;;;;;;;15.83;3.23;;;12.10;51.30;;;;;;4996673;28;20449;-88
2022/02/22 01:59:48;;;;;;;17.60;3.60;;;12.10;51.40;;;;;;4998012;28;20449;-88
2022/02/22 02:02:16;;;;;;;21.87;3.70;;;12.20;51.70;;;;;;4997394;28;20445;-88
2022/02/22 02:04:44;;;;;;;26.30;3.70;;;12.30;50.80;;;;;;4996615;28;20497;-88
2022/02/22 02:07:17;;;;;;;12.40;3.50;;;12.10;51.30;;;;;;4996668;28;20456;-88
2022/02/22 02:09:45;;;;;;;15.40;3.80;;;11.90;51.90;;;;;;4999124;28;20485;-89
2022/02/22 02:12:15;;;;;;;22.13;3.63;;;12.00;52.10;;;;;;4999061;28;20438;-89
2022/02/22 02:14:43;;;;;;;22.27;4.30;;;12.30;51.40;;;;;;4999323;28;20474;-89
2022/02/22 02:17:12;;;;;;;19.47;4.40;;;12.20;51.40;;;;;;4999232;28;20929;-89
2022/02/22 02:19:41;;;;;;;21.07;4.07;;;12.30;51.20;;;;;;4998978;28;20469;-89
2022/02/22 02:22:11;;;;;;;27.40;5.20;;;12.30;51.50;;;;;;4998202;28;20465;-89
2022/02/22 02:24:39;;;;;;;16.13;3.87;;;12.40;51.50;;;;;;5002586;28;20461;-90
2022/02/22 02:27:07;;;;;;;26.87;4.90;;;12.70;51.50;;;;;;4996468;28;20460;-89
2022/02/22 02:29:35;;;;;;;24.70;4.70;;;12.80;50.60;;;;;;5001459;28;20453;-90
2022/02/22 02:32:04;;;;;;;19.83;4.30;;;12.50;51.40;;;;;;5000362;28;20516;-89
2022/02/22 02:34:32;;;;;;;25.20;4.60;;;12.30;52.40;;;;;;5000173;28;20453;-89
2022/02/22 02:37:00;;;;;;;24.43;4.20;;;12.50;51.90;;;;;;5003222;28;20496;-89
2022/02/22 02:39:29;;;;;;;28.73;4.97;;;12.50;52.00;;;;;;5004401;28;20472;-89
2022/02/22 02:41:57;;;;;;;25.70;4.67;;;12.40;51.90;;;;;;5001509;28;20445;-89
2022/02/22 02:44:25;;;;;;;22.70;5.23;;;12.30;51.70;;;;;;4991422;28;20437;-90
2022/02/22 02:46:53;;;;;;;23.47;4.50;;;12.00;51.90;;;;;;5002252;28;20446;-88
2022/02/22 02:49:24;;;;;;;22.03;4.77;;;12.10;52.60;;;;;;4996188;28;20482;-88
2022/02/22 02:51:52;;;;;;;30.43;5.20;;;12.40;51.90;;;;;;4998766;28;20470;-88
2022/02/22 02:54:20;;;;;;;26.80;4.70;;;12.40;51.60;;;;;;5003613;28;20461;-89
2022/02/22 02:56:49;;;;;;;28.17;4.87;;;12.50;50.90;;;;;;5009993;28;20441;-89
2022/02/22 02:59:23;;;;;;;24.10;6.07;;;12.20;51.50;;;;;;5006460;28;20464;-89
2022/02/22 03:01:51;;;;;;;37.77;6.07;;;12.10;51.70;;;;;;5009030;28;20441;-89
2022/02/22 03:04:19;;;;;;;30.07;5.20;;;11.80;52.00;;;;;;5005636;28;20453;-89
2022/02/22 03:06:47;;;;;;;18.67;3.83;;;11.60;52.60;;;;;;4995190;28;20453;-89
2022/02/22 03:09:15;;;;;;;28.43;4.40;;;11.80;53.60;;;;;;4995897;28;20449;-89
2022/02/22 03:11:43;;;;;;;23.57;4.20;;;12.10;52.00;;;;;;5002328;28;20572;-88
2022/02/22 03:14:13;;;;;;;22.77;4.37;;;12.00;52.40;;;;;;4995611;28;20480;-89
2022/02/22 03:16:41;;;;;;;27.80;4.17;;;11.80;52.70;;;;;;4993870;28;20469;-90
2022/02/22 03:19:11;;;;;;;21.87;4.50;;;12.00;52.40;;;;;;4995541;28;20459;-90
2022/02/22 03:21:39;;;;;;;23.40;4.43;;;11.80;52.60;;;;;;4998582;28;20450;-89
2022/02/22 03:24:07;;;;;;;23.03;5.40;;;11.80;53.40;;;;;;4997953;28;20477;-87
2022/02/22 03:26:35;;;;;;;16.23;3.57;;;11.60;53.50;;;;;;5004804;28;20995;-86
2022/02/22 03:29:03;;;;;;;19.53;4.27;;;11.60;53.70;;;;;;5001442;28;20536;-86
2022/02/22 03:31:33;;;;;;;17.90;3.80;;;11.60;53.70;;;;;;4990687;28;21058;-86
2022/02/22 03:34:00;;;;;;;21.60;3.93;;;11.70;53.20;;;;;;4992917;28;20441;-86
2022/02/22 03:36:28;;;;;;;13.93;3.20;;;11.60;53.50;;;;;;4992824;28;20500;-86
2022/02/22 03:38:56;;;;;;;16.47;4.50;;;11.80;53.50;;;;;;4993130;28;20457;-86
2022/02/22 03:41:24;;;;;;;29.07;4.40;;;11.60;54.40;;;;;;4993638;28;20437;-86
2022/02/22 03:43:52;;;;;;;19.37;3.83;;;11.80;53.00;;;;;;4993582;28;20496;-86
2022/02/22 03:46:21;;;;;;;23.67;4.60;;;11.90;52.90;;;;;;4994647;28;20473;-86
2022/02/22 03:48:50;;;;;;;25.33;4.10;;;12.10;52.50;;;;;;4991482;28;20461;-86
2022/02/22 03:51:18;;;;;;;25.47;4.53;;;12.20;52.00;;;;;;4994277;28;20485;-86
2022/02/22 03:53:46;;;;;;;17.97;4.17;;;12.10;52.40;;;;;;4993928;28;20440;-86
2022/02/22 03:56:14;;;;;;;18.07;3.80;;;12.10;52.40;;;;;;4994841;28;20458;-86
2022/02/22 03:58:43;;;;;;;24.70;4.40;;;12.20;52.10;;;;;;4995091;28;20456;-86
2022/02/22 04:01:11;;;;;;;24.07;4.43;;;12.20;51.60;;;;;;4994877;28;20425;-86
2022/02/22 04:03:39;;;;;;;20.83;4.20;;;11.50;52.70;;;;;;4994396;28;20480;-86
2022/02/22 04:06:08;;;;;;;24.50;4.00;;;11.50;53.30;;;;;;4996049;28;20469;-86
2022/02/22 04:08:36;;;;;;;20.57;4.43;;;11.30;53.10;;;;;;4994169;28;20445;-86
2022/02/22 04:11:04;;;;;;;24.37;4.33;;;11.50;53.60;;;;;;4994410;28;20466;-86
2022/02/22 04:13:32;;;;;;;21.60;4.03;;;11.60;52.80;;;;;;4994532;28;20452;-86
2022/02/22 04:16:00;;;;;;;30.30;5.47;;;11.60;52.50;;;;;;4995054;28;20457;-86
2022/02/22 04:18:28;;;;;;;40.03;5.33;;;11.40;52.60;;;;;;4992754;28;20501;-86
2022/02/22 04:20:56;;;;;;;26.13;4.90;;;11.50;52.90;;;;;;4995168;28;20429;-86
2022/02/22 04:23:25;;;;;;;27.80;4.60;;;11.60;52.50;;;;;;4995076;28;20469;-87
2022/02/22 04:25:53;;;;;;;23.37;4.60;;;11.70;52.70;;;;;;4995275;28;20535;-86
2022/02/22 04:28:21;;;;;;;26.60;4.93;;;11.60;52.10;;;;;;4996211;28;20468;-86
2022/02/22 04:30:51;;;;;;;30.07;4.97;;;11.50;52.20;;;;;;4995586;28;20499;-86
2022/02/22 04:33:19;;;;;;;31.93;5.73;;;11.40;52.90;;;;;;4995677;28;20473;-86
2022/02/22 04:35:46;;;;;;;29.07;5.23;;;11.40;52.30;;;;;;4993265;28;20477;-86
2022/02/22 04:38:14;;;;;;;27.80;5.10;;;11.60;52.10;;;;;;4994348;28;20499;-86
2022/02/22 04:40:44;;;;;;;21.30;3.87;;;11.60;52.20;;;;;;4994578;28;20453;-86
2022/02/22 04:43:13;;;;;;;23.67;4.93;;;11.60;52.70;;;;;;4994888;28;20450;-86
2022/02/22 04:45:41;;;;;;;33.70;4.50;;;11.60;52.10;;;;;;4999386;28;20566;-86
2022/02/22 04:48:09;;;;;;;22.10;4.57;;;11.50;52.00;;;;;;4993906;28;20437;-86
2022/02/22 04:50:37;;;;;;;27.53;5.10;;;11.40;52.20;;;;;;4997127;28;20449;-86
2022/02/22 04:53:08;;;;;;;24.27;4.47;;;11.50;52.40;;;;;;4995884;28;20473;-86
2022/02/22 04:55:36;;;;;;;14.87;4.00;;;11.60;51.60;;;;;;4998038;28;20549;-86
2022/02/22 04:58:06;;;;;;;22.83;4.20;;;11.70;51.80;;;;;;4997832;28;20500;-86
2022/02/22 05:00:34;;;;;;;29.20;4.93;;;11.90;50.70;;;;;;4998318;28;20453;-86
2022/02/22 05:03:02;;;;;;;32.47;5.13;;;11.80;50.70;;;;;;4998383;28;20459;-86
2022/02/22 05:05:30;;;;;;;33.13;4.50;;;11.70;51.40;;;;;;4998662;28;20473;-86
2022/02/22 05:08:00;;;;;;;32.47;5.73;;;11.70;51.10;;;;;;4998522;28;20445;-86
2022/02/22 05:10:28;;;;;;;27.13;5.20;;;11.30;51.80;;;;;;4996361;28;20480;-86
2022/02/22 05:12:56;;;;;;;26.43;4.90;;;11.50;51.60;;;;;;4996883;28;20477;-86
2022/02/22 05:15:25;;;;;;;30.47;5.87;;;11.40;51.70;;;;;;5000108;28;20450;-86
2022/02/22 05:17:53;;;;;;;20.20;4.10;;;11.40;51.80;;;;;;5000731;28;20476;-86
2022/02/22 05:20:21;;;;;;;27.53;4.20;;;11.40;52.20;;;;;;5001252;28;20448;-86
2022/02/22 05:22:49;;;;;;;27.90;5.23;;;11.50;52.00;;;;;;4999212;28;20430;-86
2022/02/22 05:25:17;;;;;;;18.73;4.30;;;11.60;51.30;;;;;;4998999;28;20584;-86
2022/02/22 05:27:45;;;;;;;33.77;5.70;;;11.60;51.10;;;;;;4990784;28;20476;-86
2022/02/22 05:30:14;;;;;;;26.97;4.63;;;11.40;51.80;;;;;;4991906;28;20497;-86
2022/02/22 05:32:44;;;;;;;22.50;4.23;;;11.20;52.10;;;;;;4995594;28;20497;-86
2022/02/22 05:35:12;;;;;;;22.70;4.90;;;11.30;52.80;;;;;;4996302;28;20454;-86
2022/02/22 05:37:40;;;;;;;30.73;4.80;;;11.50;52.10;;;;;;4997199;28;20481;-86
2022/02/22 05:40:11;;;;;;;26.10;4.90;;;11.40;51.80;;;;;;4995919;28;20433;-86
2022/02/22 05:42:39;;;;;;;35.33;5.73;;;11.20;52.10;;;;;;4993035;28;20449;-86
2022/02/22 05:45:07;;;;;;;32.77;4.93;;;11.20;52.40;;;;;;4978273;28;20528;-86
2022/02/22 05:47:35;;;;;;;30.30;5.50;;;11.10;52.60;;;;;;4978666;28;20488;-86
2022/02/22 05:50:05;;;;;;;31.80;6.37;;;11.30;52.70;;;;;;4978876;28;20477;-86
2022/02/22 05:52:34;;;;;;;26.43;5.30;;;11.10;52.50;;;;;;4977799;28;20474;-86
2022/02/22 05:55:02;;;;;;;26.90;5.50;;;11.20;52.60;;;;;;4978716;28;20497;-86
2022/02/22 05:57:30;;;;;;;29.80;6.07;;;11.00;53.10;;;;;;4981243;28;20544;-86
2022/02/22 05:59:58;;;;;;;33.37;5.40;;;11.00;53.30;;;;;;4996899;28;20461;-86
2022/02/22 06:02:26;;;;;;;30.97;5.70;;;11.10;53.20;;;;;;4998093;28;20456;-86
2022/02/22 06:04:54;;;;;;;30.47;5.57;;;10.90;53.60;;;;;;4998093;28;20492;-86
2022/02/22 06:07:23;;;;;;;33.20;4.97;;;11.10;53.10;;;;;;4998393;28;20429;-86
2022/02/22 06:09:51;;;;;;;26.73;5.20;;;11.10;53.30;;;;;;5000393;28;20457;-86
2022/02/22 06:12:19;;;;;;;28.47;5.10;;;11.00;53.70;;;;;;5000814;28;20477;-87
2022/02/22 06:14:47;;;;;;;36.60;5.30;;;11.00;53.70;;;;;;5000588;28;20525;-85
2022/02/22 06:17:15;;;;;;;40.20;5.23;;;11.10;53.50;;;;;;5017945;28;20445;-84
2022/02/22 06:19:43;;;;;;;32.67;5.50;;;11.10;53.90;;;;;;5018221;28;20469;-84
2022/02/22 06:22:11;;;;;;;30.23;4.57;;;11.30;53.20;;;;;;5018337;28;20538;-84
2022/02/22 06:24:40;;;;;;;31.17;5.27;;;11.30;53.20;;;;;;5017739;28;20457;-84
2022/02/22 06:27:08;;;;;;;25.20;4.70;;;11.30;53.00;;;;;;5017161;28;20527;-84
2022/02/22 06:29:37;;;;;;;33.17;5.10;;;11.10;53.60;;;;;;5016631;28;20453;-84
2022/02/22 06:32:06;;;;;;;21.00;4.97;;;11.30;53.40;;;;;;5017729;28;20428;-84
2022/02/22 06:34:34;;;;;;;36.40;8.03;;;11.30;53.10;;;;;;5017574;28;20429;-84
2022/02/22 06:37:02;;;;;;;24.00;5.30;;;11.30;53.10;;;;;;5017735;28;20429;-84
2022/02/22 06:39:30;;;;;;;32.17;5.93;;;11.10;53.60;;;;;;5017575;28;20486;-84
2022/02/22 06:42:00;;;;;;;30.80;5.93;;;11.20;53.50;;;;;;5017571;28;20497;-84
2022/02/22 06:44:27;;;;;;;30.47;5.00;;;11.00;53.50;;;;;;5017646;28;20425;-84
2022/02/22 06:46:59;;;;;;;25.93;4.70;;;10.80;54.90;;;;;;5016651;28;20480;-85
2022/02/22 06:49:28;;;;;;;35.03;5.33;;;11.00;54.00;;;;;;5017629;28;20472;-85
2022/02/22 06:51:56;;;;;;;21.70;4.63;;;11.10;53.90;;;;;;5017378;28;20446;-85
2022/02/22 06:54:24;;;;;;;35.10;5.33;;;11.00;53.80;;;;;;5017376;28;20512;-84
2022/02/22 06:56:52;;;;;;;22.97;4.93;;;10.90;54.40;;;;;;5017166;28;20461;-84
2022/02/22 06:59:21;;;;;;;21.60;4.17;;;11.00;54.50;;;;;;5016904;28;20452;-84
2022/02/22 07:01:49;;;;;;;25.23;5.43;;;11.00;54.20;;;;;;5016366;28;20457;-84
2022/02/22 07:04:17;;;;;;;33.90;5.90;;;11.00;54.20;;;;;;5016728;28;20445;-84
2022/02/22 07:06:45;;;;;;;37.43;5.97;;;11.10;54.00;;;;;;5017029;28;20445;-84
2022/02/22 07:09:13;;;;;;;24.00;5.57;;;11.00;54.10;;;;;;5016613;28;20434;-84
2022/02/22 07:11:41;;;;;;;32.03;5.13;;;10.60;54.90;;;;;;5015874;28;20460;-84
2022/02/22 07:14:10;;;;;;;27.33;5.03;;;10.50;55.50;;;;;;5016185;28;20454;-85
2022/02/22 07:16:39;;;;;;;27.83;5.30;;;10.60;55.50;;;;;;5015661;28;20470;-85
2022/02/22 07:19:07;;;;;;;32.00;5.63;;;10.70;55.50;;;;;;5014784;28;20457;-84
2022/02/22 07:21:37;;;;;;;31.03;5.63;;;10.90;55.40;;;;;;5016746;28;20429;-84
2022/02/22 07:24:05;;;;;;;37.43;5.63;;;10.70;55.80;;;;;;5016415;28;20433;-84
2022/02/22 07:26:33;;;;;;;26.30;5.90;;;10.80;56.00;;;;;;5016113;28;20453;-85
2022/02/22 07:29:01;;;;;;;24.77;5.80;;;10.90;55.50;;;;;;5016292;28;20417;-85
2022/02/22 07:31:29;;;;;;;22.47;4.10;;;10.60;56.00;;;;;;5015953;28;20437;-85
2022/02/22 07:33:58;;;;;;;26.23;5.33;;;10.70;56.80;;;;;;5016004;28;20468;-85
2022/02/22 07:36:26;;;;;;;26.60;5.40;;;11.00;55.80;;;;;;5014602;28;20465;-85
2022/02/22 07:38:54;;;;;;;27.50;5.40;;;10.70;56.50;;;;;;5015853;28;20429;-85
2022/02/22 07:41:23;;;;;;;28.00;5.67;;;11.00;55.90;;;;;;5016051;28;20465;-85
2022/02/22 07:43:51;;;;;;;29.00;6.20;;;11.00;56.30;;;;;;5015897;28;20462;-85
2022/02/22 07:46:19;;;;;;;35.27;6.40;;;11.00;55.80;;;;;;5016365;28;20468;-85
2022/02/22 07:48:47;;;;;;;42.90;6.43;;;11.00;56.10;;;;;;5016098;28;20429;-85
2022/02/22 07:51:18;;;;;;;32.33;5.80;;;11.20;55.90;;;;;;5015854;28;20472;-85
2022/02/22 07:53:46;;;;;;;38.00;5.57;;;11.30;55.60;;;;;;5008827;28;20536;-85
2022/02/22 07:56:14;;;;;;;24.23;5.53;;;11.30;55.60;;;;;;5015383;28;20469;-85
2022/02/22 07:58:42;;;;;;;28.37;5.20;;;11.50;55.50;;;;;;5015461;28;20448;-85
2022/02/22 08:01:11;;;;;;;35.07;5.23;;;11.40;55.50;;;;;;5015954;28;20445;-85
2022/02/22 08:03:39;;;;;;;26.37;4.70;;;11.50;55.40;;;;;;5016373;28;20414;-84
2022/02/22 08:06:07;;;;;;;34.90;6.23;;;11.40;55.50;;;;;;5016488;28;20468;-84
2022/02/22 08:08:36;;;;;;;38.10;5.80;;;11.40;55.70;;;;;;5015801;28;20430;-84
2022/02/22 08:11:04;;;;;;;28.27;5.50;;;11.60;55.90;;;;;;5016263;28;20472;-84
2022/02/22 08:13:32;;;;;;;34.23;4.80;;;11.70;55.70;;;;;;5016901;28;20482;-84
2022/02/22 08:16:00;;;;;;;23.27;4.70;;;11.80;55.80;;;;;;5016808;28;20473;-84
2022/02/22 08:18:28;;;;;;;29.17;5.60;;;11.70;56.10;;;;;;5016934;28;20516;-84
2022/02/22 08:20:57;;;;;;;21.40;4.63;;;11.80;56.30;;;;;;5016771;28;20438;-84
2022/02/22 08:23:30;;;;;;;27.93;4.77;;;11.90;56.10;;;;;;5016242;28;20425;-84
2022/02/22 08:26:00;;;;;;;27.70;6.30;;;11.80;56.10;;;;;;5019096;28;20830;-84
2022/02/22 08:28:30;;;;;;;38.00;5.53;;;11.90;56.00;;;;;;5020118;28;20452;-84
2022/02/22 08:30:58;;;;;;;33.53;5.40;;;11.90;56.00;;;;;;5020799;28;20456;-84
2022/02/22 08:33:26;;;;;;;25.83;4.80;;;12.00;56.20;;;;;;5020393;28;20461;-84
2022/02/22 08:35:56;;;;;;;23.53;5.73;;;12.00;56.10;;;;;;5020752;28;20437;-84
2022/02/22 08:38:24;;;;;;;28.13;4.80;;;12.20;56.50;;;;;;5020253;28;20445;-84
2022/02/22 08:40:52;;;;;;;28.93;5.53;;;12.30;56.40;;;;;;5019312;28;20533;-84
2022/02/22 08:43:22;;;;;;;24.43;4.70;;;12.60;55.60;;;;;;5020158;28;20461;-84
2022/02/22 08:45:50;;;;;;;23.17;5.10;;;12.60;55.40;;;;;;5019981;28;20517;-84
2022/02/22 08:48:18;;;;;;;28.53;6.20;;;12.50;56.00;;;;;;5020585;28;20439;-84
2022/02/22 08:50:47;;;;;;;29.63;6.40;;;12.40;56.00;;;;;;5020591;28;20543;-84
2022/02/22 08:53:17;;;;;;;33.00;5.50;;;12.70;55.70;;;;;;5020084;28;20444;-84
2022/02/22 08:55:45;;;;;;;26.70;5.70;;;12.50;55.80;;;;;;5019826;28;20491;-84
2022/02/22 08:58:14;;;;;;;31.97;5.27;;;12.40;56.30;;;;;;5018974;28;20473;-84
2022/02/22 09:00:45;;;;;;;40.20;5.17;;;12.80;56.10;;;;;;5015050;28;20426;-84
2022/02/22 09:03:13;;;;;;;30.63;5.00;;;12.60;55.80;;;;;;5020470;28;20452;-85
2022/02/22 09:05:41;;;;;;;32.33;5.10;;;12.50;56.30;;;;;;5020484;28;20457;-85
2022/02/22 09:08:09;;;;;;;24.27;5.20;;;12.60;56.50;;;;;;5020466;28;20452;-85
2022/02/22 09:10:39;;;;;;;26.97;4.97;;;12.70;56.40;;;;;;5004936;28;20441;-86
2022/02/22 09:13:07;;;;;;;18.40;4.10;;;13.20;57.20;;;;;;4995669;28;20441;-86
2022/02/22 09:15:36;;;;;;;29.50;4.83;;;13.60;55.30;;;;;;4994513;28;20473;-86
2022/02/22 09:18:07;;;;;;;21.80;4.60;;;13.50;55.10;;;;;;4996066;28;20445;-86
2022/02/22 09:20:36;;;;;;;25.87;4.33;;;13.30;55.00;;;;;;4996173;28;20425;-86
2022/02/22 09:23:07;;;;;;;27.17;4.47;;;13.30;55.50;;;;;;4995884;28;20449;-86
2022/02/22 09:25:35;;;;;;;33.67;5.33;;;13.40;55.40;;;;;;4995719;28;20453;-86
2022/02/22 09:28:06;;;;;;;33.57;5.17;;;13.30;55.40;;;;;;4995519;28;20500;-86
2022/02/22 09:30:35;;;;;;;30.63;5.30;;;13.20;55.60;;;;;;4995816;28;20436;-86
2022/02/22 09:33:03;;;;;;;30.13;5.80;;;13.20;55.90;;;;;;4994551;28;20540;-86
2022/02/22 09:35:33;;;;;;;32.33;5.70;;;13.60;55.60;;;;;;4995575;28;20481;-86
2022/02/22 09:38:01;;;;;;;38.87;5.37;;;13.70;55.00;;;;;;4996048;28;20449;-86
2022/02/22 09:40:29;;;;;;;22.47;3.83;;;14.00;54.80;;;;;;4998458;28;20464;-85
2022/02/22 09:42:58;;;;;;;26.73;5.10;;;14.00;54.40;;;;;;4998302;28;20463;-86
2022/02/22 09:45:26;;;;;;;26.93;4.90;;;13.90;54.70;;;;;;4997479;28;20541;-86
2022/02/22 09:48:01;;;;;;;25.13;3.90;;;14.20;54.60;;;;;;4997020;28;20453;-85
2022/02/22 09:50:29;;;;;;;35.37;6.50;;;14.10;53.90;;;;;;5001981;28;20476;-85
2022/02/22 09:52:59;;;;;;;26.37;5.37;;;14.00;54.40;;;;;;5001621;28;20441;-86
2022/02/22 09:55:27;;;;;;;25.97;4.07;;;14.10;54.20;;;;;;5004773;28;20477;-85
2022/02/22 09:57:55;;;;;;;31.23;5.30;;;14.10;54.10;;;;;;5004384;28;20450;-85
2022/02/22 10:00:24;;;;;;;27.27;5.40;;;14.20;53.90;;;;;;5000484;28;20452;-86
2022/02/22 10:02:52;;;;;;;22.77;5.20;;;14.40;55.00;;;;;;4997594;28;20550;-86
2022/02/22 10:05:21;;;;;;;21.23;4.30;;;14.50;53.60;;;;;;4996064;28;20473;-86
2022/02/22 10:07:54;;;;;;;24.53;5.00;;;14.50;53.60;;;;;;4997096;28;20460;-87
2022/02/22 10:10:34;;;;;;;28.47;5.30;;;14.50;54.30;;;;;;4997236;28;20465;-86
2022/02/22 10:13:03;;;;;;;20.13;4.90;;;14.60;53.10;;;;;;4996835;28;20511;-86
2022/02/22 10:15:36;;;;;;;21.33;4.03;;;14.70;53.60;;;;;;4996359;28;20477;-87
2022/02/22 10:18:05;;;;;;;34.37;4.70;;;14.60;53.00;;;;;;4996767;28;20456;-86
2022/02/22 10:20:33;;;;;;;28.73;5.23;;;14.40;53.80;;;;;;4995160;28;20461;-86
2022/02/22 10:23:02;;;;;;;23.00;4.80;;;14.40;53.20;;;;;;4996749;28;20500;-86
2022/02/22 10:25:30;;;;;;;24.83;4.60;;;14.50;54.90;;;;;;4996164;28;20457;-86
2022/02/22 10:28:00;;;;;;;21.30;4.50;;;14.80;53.10;;;;;;4996680;28;20456;-86
2022/02/22 10:30:38;;;;;;;30.60;5.00;;;14.90;52.40;;;;;;4996520;28;20454;-87
2022/02/22 10:33:15;;;;;;;20.60;3.87;;;14.90;53.10;;;;;;4996555;28;20500;-86
2022/02/22 10:35:46;;;;;;;29.57;4.10;;;15.10;52.50;;;;;;4994991;28;20524;-87
2022/02/22 10:38:16;;;;;;;24.73;5.47;;;15.00;52.00;;;;;;4996241;28;20533;-86
2022/02/22 10:40:51;;;;;;;23.83;4.67;;;15.00;52.90;;;;;;4992454;28;20469;-86
2022/02/22 10:43:25;;;;;;;27.90;4.63;;;14.90;52.20;;;;;;4995707;28;20453;-86
2022/02/22 10:45:54;;;;;;;24.80;3.97;;;15.20;52.10;;;;;;4996235;28;20454;-86
2022/02/22 10:48:27;;;;;;;23.67;4.80;;;15.20;52.00;;;;;;4994684;28;20438;-86
2022/02/22 10:50:56;;;;;;;29.97;4.23;;;15.00;51.70;;;;;;4993202;28;20465;-86
2022/02/22 10:53:33;;;;;;;30.70;4.90;;;14.80;52.00;;;;;;5002841;28;20453;-83
2022/02/22 10:56:02;;;;;;;18.33;4.33;;;14.50;52.60;;;;;;5010013;28;20484;-84
2022/02/22 10:58:32;;;;;;;18.30;3.43;;;14.60;52.20;;;;;;5011021;28;20465;-83
2022/02/22 11:01:00;;;;;;;24.37;4.20;;;14.60;52.00;;;;;;5009402;28;20434;-84
2022/02/22 11:03:28;;;;;;;13.67;3.60;;;14.70;51.80;;;;;;5008821;28;20516;-83
2022/02/22 11:05:56;;;;;;;25.70;4.47;;;14.80;51.60;;;;;;5008599;28;20495;-83
2022/02/22 11:08:26;;;;;;;21.83;4.37;;;15.00;51.20;;;;;;5007994;28;20459;-83
2022/02/22 11:11:03;;;;;;;18.27;3.90;;;14.80;51.90;;;;;;5009246;28;20449;-83
2022/02/22 11:13:34;;;;;;;21.77;4.33;;;14.80;51.20;;;;;;5010361;28;20432;-84
2022/02/22 11:16:13;;;;;;;21.13;4.40;;;14.80;51.30;;;;;;5010749;28;20477;-84
2022/02/22 11:18:51;;;;;;;18.43;4.23;;;14.60;51.60;;;;;;5008476;28;20440;-84
2022/02/22 11:21:20;;;;;;;13.13;3.93;;;14.60;51.30;;;;;;5009239;28;20430;-83
2022/02/22 11:23:48;;;;;;;20.00;3.90;;;14.20;51.50;;;;;;5007864;28;20457;-83
2022/02/22 11:26:17;;;;;;;18.97;4.70;;;14.20;52.10;;;;;;5009179;28;20469;-84
2022/02/22 11:28:49;;;;;;;23.23;5.17;;;14.40;52.10;;;;;;5009067;28;20449;-84
2022/02/22 11:31:18;;;;;;;19.90;3.77;;;14.70;51.80;;;;;;5010067;28;20508;-83
2022/02/22 11:33:47;;;;;;;28.23;4.80;;;14.70;51.40;;;;;;5008940;28;20441;-83
2022/02/22 11:36:25;;;;;;;18.50;3.73;;;14.60;50.70;;;;;;5008174;28;20465;-84
2022/02/22 11:38:53;;;;;;;20.10;4.30;;;14.40;51.70;;;;;;5009507;28;20448;-83
2022/02/22 11:41:36;;;;;;;20.53;4.53;;;14.60;50.80;;;;;;5009385;28;20468;-83
2022/02/22 11:44:06;;;;;;;20.73;4.23;;;14.60;51.20;;;;;;5008479;28;20456;-83
2022/02/22 11:46:35;;;;;;;12.87;3.30;;;14.70;51.20;;;;;;5007725;28;20463;-83
2022/02/22 11:49:13;;;;;;;21.03;4.20;;;14.60;51.20;;;;;;5008085;28;20445;-84
2022/02/22 11:52:07;;;;;;;18.20;3.70;;;14.50;52.50;;;;;;5006848;28;20441;-83
2022/02/22 11:54:35;;;;;;;16.20;4.20;;;14.70;51.60;;;;;;5007420;28;20429;-83
2022/02/22 11:57:05;;;;;;;17.03;4.03;;;14.80;51.50;;;;;;5008038;28;20504;-83
2022/02/22 11:59:46;;;;;;;20.93;4.60;;;14.70;51.60;;;;;;5008913;28;20524;-84
2022/02/22 12:02:23;;;;;;;15.30;3.70;;;14.50;51.70;;;;;;5008628;28;20421;-84
2022/02/22 12:04:57;;;;;;;17.30;4.03;;;14.40;52.40;;;;;;5010734;28;20572;-83
2022/02/22 12:07:29;;;;;;;20.17;4.17;;;14.70;52.10;;;;;;5006790;28;20441;-83
2022/02/22 12:09:57;;;;;;;22.43;3.73;;;15.10;51.80;;;;;;5001305;28;20476;-86
2022/02/22 12:12:25;;;;;;;17.43;3.40;;;14.80;51.80;;;;;;5002140;28;20456;-81
2022/02/22 12:14:55;;;;;;;24.80;4.40;;;15.00;52.50;;;;;;5010859;28;20449;-81
2022/02/22 12:17:23;;;;;;;15.60;3.93;;;15.50;52.20;;;;;;5008276;28;20476;-81
2022/02/22 12:19:52;;;;;;;20.33;3.77;;;16.00;51.70;;;;;;5009328;28;20437;-80
2022/02/22 12:22:20;;;;;;;13.00;3.90;;;16.20;51.10;;;;;;5008830;28;20452;-82
2022/02/22 12:24:58;;;;;;;16.77;3.90;;;16.30;50.80;;;;;;5007246;28;20465;-82
2022/02/22 12:27:28;;;;;;;9.87;2.70;;;16.50;50.50;;;;;;5008994;28;20445;-81
2022/02/22 12:29:59;;;;;;;9.37;3.17;;;16.50;50.20;;;;;;5006383;28;20464;-81
2022/02/22 12:32:32;;;;;;;10.80;2.97;;;16.50;50.20;;;;;;5009023;28;20449;-81
2022/02/22 12:35:06;;;;;;;12.40;3.10;;;16.50;50.20;;;;;;5006107;28;20616;-80
2022/02/22 12:37:53;;;;;;;9.60;3.37;;;16.50;50.20;;;;;;5006553;28;20540;-80
2022/02/22 12:40:22;;;;;;;10.57;3.20;;;16.60;50.10;;;;;;5003407;28;20650;-82
2022/02/22 12:42:51;;;;;;;14.10;3.17;;;16.60;50.20;;;;;;4995551;28;20512;-82
2022/02/22 12:45:22;;;;;;;13.47;3.73;;;16.60;50.20;;;;;;4995127;28;20529;-82
2022/02/22 12:47:54;;;;;;;13.03;3.30;;;16.60;50.20;;;;;;4994157;28;20532;-82